createdAt,value
2018-02-07T00:00:28.855Z,0
2018-02-07T00:01:38.080Z,0
2018-02-07T00:02:47.576Z,0
2018-02-07T00:03:56.272Z,0
2018-02-07T00:05:05.230Z,0
2018-02-07T00:06:14.449Z,0
2018-02-07T00:07:23.143Z,0
2018-02-07T00:08:31.835Z,0
2018-02-07T00:09:40.530Z,0
2018-02-07T00:10:49.756Z,0
2018-02-07T00:11:58.714Z,0
2018-02-07T00:13:07.941Z,0
2018-02-07T00:14:17.174Z,0
2018-02-07T00:15:26.140Z,0
2018-02-07T00:16:35.097Z,0
2018-02-07T00:17:44.059Z,0
2018-02-07T00:18:52.753Z,0
2018-02-07T00:20:01.712Z,0
2018-02-07T00:21:10.674Z,0
2018-02-07T00:22:19.634Z,0
2018-02-07T00:23:28.591Z,0
2018-02-07T00:24:37.552Z,0
2018-02-07T00:25:46.509Z,0
2018-02-07T00:26:55.203Z,0
2018-02-07T00:28:04.161Z,0
2018-02-07T00:29:13.392Z,0
2018-02-07T00:30:22.087Z,0
2018-02-07T00:31:31.044Z,0
2018-02-07T00:32:40.013Z,0
2018-02-07T00:33:48.967Z,0
2018-02-07T00:34:57.934Z,0
2018-02-07T00:36:06.894Z,0
2018-02-07T00:37:15.854Z,0
2018-02-07T00:38:24.816Z,0
2018-02-07T00:39:33.513Z,0
2018-02-07T00:40:42.208Z,0
2018-02-07T00:41:51.174Z,0
2018-02-07T00:43:00.399Z,0
2018-02-07T00:44:09.356Z,0
2018-02-07T00:45:18.321Z,0
2018-02-07T00:46:27.281Z,0
2018-02-07T00:47:36.508Z,0
2018-02-07T00:48:45.464Z,0
2018-02-07T00:49:54.424Z,0
2018-02-07T00:51:03.435Z,0
2018-02-07T00:52:12.661Z,0
2018-02-07T00:53:21.623Z,0
2018-02-07T00:54:31.386Z,0
2018-02-07T00:55:40.078Z,0
2018-02-07T00:56:49.041Z,0
2018-02-07T00:57:57.743Z,0
2018-02-07T00:59:06.707Z,0
2018-02-07T01:00:15.404Z,0
2018-02-07T01:01:24.099Z,0
2018-02-07T01:02:33.591Z,0
2018-02-07T01:03:42.546Z,0
2018-02-07T01:04:52.039Z,0
2018-02-07T01:06:01.000Z,0
2018-02-07T01:07:09.689Z,0
2018-02-07T01:08:18.920Z,0
2018-02-07T01:09:28.409Z,0
2018-02-07T01:10:37.636Z,0
2018-02-07T01:11:46.858Z,0
2018-02-07T01:12:55.553Z,0
2018-02-07T01:14:04.779Z,0
2018-02-07T01:15:13.744Z,0
2018-02-07T01:16:22.704Z,0
2018-02-07T01:17:31.664Z,0
2018-02-07T01:18:40.663Z,0
2018-02-07T01:19:49.628Z,0
2018-02-07T01:20:58.910Z,0
2018-02-07T01:22:07.826Z,0
2018-02-07T01:23:16.795Z,0
2018-02-07T01:24:26.023Z,0
2018-02-07T01:25:34.714Z,0
2018-02-07T01:26:43.674Z,0
2018-02-07T01:27:53.162Z,0
2018-02-07T01:29:02.120Z,0
2018-02-07T01:30:10.814Z,0
2018-02-07T01:31:19.776Z,0
2018-02-07T01:32:28.469Z,0
2018-02-07T01:33:37.433Z,0
2018-02-07T01:34:46.392Z,0
2018-02-07T01:35:55.087Z,0
2018-02-07T01:37:04.309Z,0
2018-02-07T01:38:13.267Z,0
2018-02-07T01:39:21.961Z,0
2018-02-07T01:40:30.919Z,0
2018-02-07T01:41:40.148Z,0
2018-02-07T01:42:49.110Z,0
2018-02-07T01:43:57.801Z,0
2018-02-07T01:45:06.760Z,0
2018-02-07T01:46:16.254Z,0
2018-02-07T01:47:24.947Z,0
2018-02-07T01:48:33.909Z,0
2018-02-07T01:49:43.396Z,0
2018-02-07T01:50:52.356Z,0
2018-02-07T01:52:01.313Z,0
2018-02-07T01:53:10.544Z,0
2018-02-07T01:54:19.238Z,0
2018-02-07T01:55:28.201Z,0
2018-02-07T01:56:36.890Z,0
2018-02-07T01:57:46.651Z,0
2018-02-07T01:58:55.874Z,0
2018-02-07T02:00:05.102Z,0
2018-02-07T02:01:13.795Z,0
2018-02-07T02:02:23.020Z,0
2018-02-07T02:03:31.716Z,0
2018-02-07T02:04:40.676Z,0
2018-02-07T02:05:49.637Z,0
2018-02-07T02:06:58.596Z,0
2018-02-07T02:08:07.819Z,0
2018-02-07T02:09:16.516Z,0
2018-02-07T02:10:25.741Z,0
2018-02-07T02:11:34.439Z,0
2018-02-07T02:12:43.666Z,0
2018-02-07T02:13:52.631Z,0
2018-02-07T02:15:01.589Z,0
2018-02-07T02:16:10.552Z,0
2018-02-07T02:17:19.245Z,0
2018-02-07T02:18:28.469Z,0
2018-02-07T02:19:37.164Z,0
2018-02-07T02:20:46.665Z,0
2018-02-07T02:21:55.366Z,0
2018-02-07T02:23:04.333Z,0
2018-02-07T02:24:13.031Z,0
2018-02-07T02:25:22.000Z,0
2018-02-07T02:26:30.962Z,0
2018-02-07T02:27:39.655Z,0
2018-02-07T02:28:48.884Z,0
2018-02-07T02:29:57.846Z,0
2018-02-07T02:31:07.072Z,0
2018-02-07T02:32:16.031Z,0
2018-02-07T02:33:24.986Z,0
2018-02-07T02:34:33.946Z,0
2018-02-07T02:35:42.640Z,0
2018-02-07T02:36:52.134Z,0
2018-02-07T02:38:01.898Z,0
2018-02-07T02:39:10.856Z,0
2018-02-07T02:40:19.817Z,0
2018-02-07T02:41:28.516Z,0
2018-02-07T02:42:37.211Z,0
2018-02-07T02:43:46.708Z,0
2018-02-07T02:44:55.939Z,0
2018-02-07T02:46:05.173Z,0
2018-02-07T02:47:14.130Z,0
2018-02-07T02:48:22.823Z,0
2018-02-07T02:49:32.053Z,0
2018-02-07T02:50:41.280Z,0
2018-02-07T02:51:50.239Z,0
2018-02-07T02:52:59.465Z,0
2018-02-07T02:54:09.237Z,0
2018-02-07T02:55:18.735Z,0
2018-02-07T02:56:27.695Z,0
2018-02-07T02:57:36.388Z,0
2018-02-07T02:58:45.882Z,0
2018-02-07T02:59:54.846Z,0
2018-02-07T03:01:03.805Z,0
2018-02-07T03:02:12.500Z,0
2018-02-07T03:03:21.196Z,0
2018-02-07T03:04:30.418Z,0
2018-02-07T03:05:39.383Z,0
2018-02-07T03:06:48.078Z,0
2018-02-07T03:07:57.036Z,0
2018-02-07T03:09:05.765Z,0
2018-02-07T03:10:15.259Z,0
2018-02-07T03:11:24.487Z,0
2018-02-07T03:12:33.449Z,0
2018-02-07T03:13:42.669Z,0
2018-02-07T03:14:51.632Z,0
2018-02-07T03:16:00.591Z,0
2018-02-07T03:17:09.549Z,0
2018-02-07T03:18:18.508Z,0
2018-02-07T03:19:27.205Z,0
2018-02-07T03:20:36.164Z,0
2018-02-07T03:21:44.864Z,0
2018-02-07T03:22:53.831Z,0
2018-02-07T03:24:02.789Z,0
2018-02-07T03:25:11.479Z,0
2018-02-07T03:26:20.437Z,0
2018-02-07T03:27:29.399Z,0
2018-02-07T03:28:38.093Z,0
2018-02-07T03:29:47.050Z,0
2018-02-07T03:30:56.014Z,0
2018-02-07T03:32:05.241Z,0
2018-02-07T03:33:14.479Z,0
2018-02-07T03:34:23.163Z,0
2018-02-07T03:35:32.656Z,0
2018-02-07T03:36:42.151Z,0
2018-02-07T03:37:50.844Z,0
2018-02-07T03:38:59.805Z,0
2018-02-07T03:40:09.027Z,0
2018-02-07T03:41:18.345Z,0
2018-02-07T03:42:27.039Z,0
2018-02-07T03:43:36.000Z,0
2018-02-07T03:44:45.224Z,0
2018-02-07T03:45:53.919Z,0
2018-02-07T03:47:02.616Z,0
2018-02-07T03:48:11.843Z,0
2018-02-07T03:49:21.068Z,0
2018-02-07T03:50:30.028Z,0
2018-02-07T03:51:38.987Z,0
2018-02-07T03:52:48.214Z,0
2018-02-07T03:53:56.906Z,0
2018-02-07T03:55:05.867Z,0
2018-02-07T03:56:15.099Z,0
2018-02-07T03:57:24.049Z,0
2018-02-07T03:58:32.729Z,0
2018-02-07T03:59:41.410Z,0
2018-02-07T04:00:50.363Z,0
2018-02-07T04:01:59.309Z,0
2018-02-07T04:03:08.524Z,0
2018-02-07T04:04:17.468Z,0
2018-02-07T04:05:26.477Z,0
2018-02-07T04:06:35.427Z,0
2018-02-07T04:07:44.110Z,0
2018-02-07T04:08:53.323Z,0
2018-02-07T04:10:02.010Z,0
2018-02-07T04:11:10.958Z,0
2018-02-07T04:12:19.916Z,0
2018-02-07T04:13:28.600Z,0
2018-02-07T04:14:37.280Z,0
2018-02-07T04:15:46.230Z,0
2018-02-07T04:16:55.174Z,0
2018-02-07T04:18:04.124Z,0
2018-02-07T04:19:13.344Z,0
2018-02-07T04:20:22.289Z,0
2018-02-07T04:21:31.234Z,0
2018-02-07T04:22:39.921Z,0
2018-02-07T04:23:49.133Z,0
2018-02-07T04:24:58.083Z,0
2018-02-07T04:26:07.031Z,0
2018-02-07T04:27:15.718Z,0
2018-02-07T04:28:24.400Z,0
2018-02-07T04:29:33.082Z,0
2018-02-07T04:30:42.315Z,0
2018-02-07T04:31:50.997Z,0
2018-02-07T04:32:59.681Z,0
2018-02-07T04:34:09.155Z,0
2018-02-07T04:35:17.840Z,0
2018-02-07T04:36:27.053Z,0
2018-02-07T04:37:35.735Z,0
2018-02-07T04:38:44.680Z,0
2018-02-07T04:39:53.893Z,0
2018-02-07T04:41:03.110Z,0
2018-02-07T04:42:12.059Z,0
2018-02-07T04:43:21.273Z,0
2018-02-07T04:44:29.953Z,0
2018-02-07T04:45:38.901Z,0
2018-02-07T04:46:48.111Z,0
2018-02-07T04:47:57.366Z,0
2018-02-07T04:49:06.577Z,0
2018-02-07T04:50:15.794Z,0
2018-02-07T04:51:24.742Z,0
2018-02-07T04:52:33.428Z,0
2018-02-07T04:53:42.112Z,0
2018-02-07T04:54:50.799Z,0
2018-02-07T04:56:00.012Z,0
2018-02-07T04:57:09.497Z,0
2018-02-07T04:58:18.442Z,0
2018-02-07T04:59:27.395Z,0
2018-02-07T05:00:36.077Z,0
2018-02-07T05:01:45.037Z,0
2018-02-07T05:02:53.714Z,0
2018-02-07T05:04:02.664Z,0
2018-02-07T05:05:11.345Z,0
2018-02-07T05:06:20.291Z,0
2018-02-07T05:07:29.242Z,0
2018-02-07T05:08:38.187Z,0
2018-02-07T05:09:47.397Z,0
2018-02-07T05:10:56.347Z,0
2018-02-07T05:12:05.304Z,0
2018-02-07T05:13:14.252Z,0
2018-02-07T05:14:23.465Z,0
2018-02-07T05:15:32.148Z,0
2018-02-07T05:16:40.831Z,0
2018-02-07T05:17:49.511Z,0
2018-02-07T05:18:58.231Z,0
2018-02-07T05:20:07.143Z,0
2018-02-07T05:21:16.087Z,0
2018-02-07T05:22:24.770Z,0
2018-02-07T05:23:33.719Z,0
2018-02-07T05:24:42.668Z,0
2018-02-07T05:25:52.411Z,0
2018-02-07T05:27:01.098Z,0
2018-02-07T05:28:10.313Z,0
2018-02-07T05:29:19.793Z,0
2018-02-07T05:30:28.476Z,4
2018-02-07T05:31:37.158Z,4
2018-02-07T05:32:46.374Z,4
2018-02-07T05:33:55.618Z,4
2018-02-07T05:35:04.838Z,4
2018-02-07T05:36:13.524Z,4
2018-02-07T05:37:22.207Z,4
2018-02-07T05:38:30.889Z,4
2018-02-07T05:39:40.103Z,4
2018-02-07T05:40:49.315Z,4
2018-02-07T05:41:58.267Z,4
2018-02-07T05:43:06.952Z,4
2018-02-07T05:44:15.899Z,4
2018-02-07T05:45:24.845Z,4
2018-02-07T05:46:34.320Z,4
2018-02-07T05:47:43.006Z,4
2018-02-07T05:48:52.217Z,4
2018-02-07T05:50:01.426Z,4
2018-02-07T05:51:10.908Z,4
2018-02-07T05:52:19.596Z,4
2018-02-07T05:53:28.533Z,4
2018-02-07T05:54:37.746Z,4
2018-02-07T05:55:46.700Z,4
2018-02-07T05:56:55.648Z,4
2018-02-07T05:58:04.330Z,4
2018-02-07T05:59:13.011Z,4
2018-02-07T06:00:21.961Z,4
2018-02-07T06:01:30.911Z,4
2018-02-07T06:02:39.861Z,4
2018-02-07T06:03:49.075Z,4
2018-02-07T06:04:58.026Z,4
2018-02-07T06:06:07.248Z,4
2018-02-07T06:07:16.514Z,4
2018-02-07T06:08:25.727Z,4
2018-02-07T06:09:34.672Z,4
2018-02-07T06:10:43.360Z,4
2018-02-07T06:11:52.044Z,4
2018-02-07T06:13:00.724Z,4
2018-02-07T06:14:09.678Z,4
2018-02-07T06:15:18.634Z,4
2018-02-07T06:16:27.583Z,4
2018-02-07T06:17:36.532Z,4
2018-02-07T06:18:45.754Z,4
2018-02-07T06:19:54.967Z,0
2018-02-07T06:21:03.916Z,0
2018-02-07T06:22:12.600Z,0
2018-02-07T06:23:21.280Z,0
2018-02-07T06:24:29.961Z,0
2018-02-07T06:25:38.909Z,0
2018-02-07T06:26:47.857Z,0
2018-02-07T06:27:56.807Z,0
2018-02-07T06:29:05.756Z,0
2018-02-07T06:30:14.442Z,0
2018-02-07T06:31:23.395Z,0
2018-02-07T06:32:32.080Z,0
2018-02-07T06:33:41.028Z,0
2018-02-07T06:34:50.502Z,0
2018-02-07T06:35:59.721Z,0
2018-02-07T06:37:08.934Z,0
2018-02-07T06:38:17.885Z,0
2018-02-07T06:39:27.093Z,0
2018-02-07T06:40:36.573Z,0
2018-02-07T06:41:45.784Z,0
2018-02-07T06:42:54.999Z,0
2018-02-07T06:44:03.947Z,0
2018-02-07T06:45:12.634Z,0
2018-02-07T06:46:21.580Z,0
2018-02-07T06:47:30.795Z,0
2018-02-07T06:48:40.008Z,0
2018-02-07T06:49:49.234Z,0
2018-02-07T06:50:58.193Z,0
2018-02-07T06:52:07.407Z,0
2018-02-07T06:53:16.090Z,0
2018-02-07T06:54:24.773Z,0
2018-02-07T06:55:33.457Z,0
2018-02-07T06:56:42.669Z,0
2018-02-07T06:57:51.913Z,0
2018-02-07T06:59:01.395Z,0
2018-02-07T07:00:10.609Z,0
2018-02-07T07:01:20.090Z,0
2018-02-07T07:02:29.038Z,0
2018-02-07T07:03:37.987Z,0
2018-02-07T07:04:46.667Z,0
2018-02-07T07:05:55.617Z,0
2018-02-07T07:07:04.832Z,0
2018-02-07T07:08:14.047Z,0
2018-02-07T07:09:23.270Z,0
2018-02-07T07:10:32.482Z,0
2018-02-07T07:11:41.695Z,0
2018-02-07T07:12:50.381Z,0
2018-02-07T07:13:59.593Z,0
2018-02-07T07:15:08.541Z,0
2018-02-07T07:16:17.753Z,0
2018-02-07T07:17:26.703Z,0
2018-02-07T07:18:35.918Z,0
2018-02-07T07:19:44.865Z,0
2018-02-07T07:20:53.817Z,0
2018-02-07T07:22:03.034Z,0
2018-02-07T07:23:12.519Z,0
2018-02-07T07:24:21.469Z,0
2018-02-07T07:25:30.949Z,0
2018-02-07T07:26:39.896Z,0
2018-02-07T07:27:49.116Z,0
2018-02-07T07:28:58.866Z,0
2018-02-07T07:30:08.081Z,0
2018-02-07T07:31:16.766Z,0
2018-02-07T07:32:26.037Z,0
2018-02-07T07:33:34.980Z,0
2018-02-07T07:34:43.663Z,0
2018-02-07T07:35:52.609Z,0
2018-02-07T07:37:01.556Z,0
2018-02-07T07:38:10.514Z,0
2018-02-07T07:39:19.458Z,4
2018-02-07T07:40:28.144Z,4
2018-02-07T07:41:37.360Z,4
2018-02-07T07:42:46.309Z,4
2018-02-07T07:43:55.257Z,4
2018-02-07T07:45:03.940Z,4
2018-02-07T07:46:12.888Z,0
2018-02-07T07:47:22.368Z,0
2018-02-07T07:48:31.578Z,0
2018-02-07T07:49:40.261Z,0
2018-02-07T07:50:49.221Z,0
2018-02-07T07:51:58.170Z,0
2018-02-07T07:53:06.853Z,0
2018-02-07T07:54:15.536Z,0
2018-02-07T07:55:25.014Z,0
2018-02-07T07:56:34.227Z,0
2018-02-07T07:57:43.171Z,0
2018-02-07T07:58:52.384Z,0
2018-02-07T08:00:01.066Z,0
2018-02-07T08:01:09.748Z,0
2018-02-07T08:02:18.431Z,0
2018-02-07T08:03:27.384Z,0
2018-02-07T08:04:36.330Z,0
2018-02-07T08:05:45.015Z,4
2018-02-07T08:06:53.963Z,4
2018-02-07T08:08:03.172Z,4
2018-02-07T08:09:12.122Z,4
2018-02-07T08:10:21.339Z,0
2018-02-07T08:11:30.551Z,0
2018-02-07T08:12:39.500Z,4
2018-02-07T08:13:48.980Z,4
2018-02-07T08:14:57.929Z,4
2018-02-07T08:16:07.151Z,4
2018-02-07T08:17:16.369Z,4
2018-02-07T08:18:25.321Z,4
2018-02-07T08:19:34.268Z,4
2018-02-07T08:20:43.213Z,4
2018-02-07T08:21:52.166Z,4
2018-02-07T08:23:01.111Z,4
2018-02-07T08:24:09.798Z,4
2018-02-07T08:25:18.747Z,8
2018-02-07T08:26:27.434Z,8
2018-02-07T08:27:36.118Z,8
2018-02-07T08:28:45.596Z,8
2018-02-07T08:29:54.558Z,8
2018-02-07T08:31:03.806Z,8
2018-02-07T08:32:12.785Z,4
2018-02-07T08:33:22.266Z,8
2018-02-07T08:34:30.939Z,4
2018-02-07T08:35:40.154Z,4
2018-02-07T08:36:48.835Z,4
2018-02-07T08:37:58.045Z,4
2018-02-07T08:39:07.255Z,4
2018-02-07T08:40:16.202Z,4
2018-02-07T08:41:25.678Z,0
2018-02-07T08:42:34.621Z,0
2018-02-07T08:43:43.570Z,0
2018-02-07T08:44:52.519Z,0
2018-02-07T08:46:01.744Z,4
2018-02-07T08:47:10.691Z,4
2018-02-07T08:48:19.375Z,4
2018-02-07T08:49:28.598Z,4
2018-02-07T08:50:37.545Z,4
2018-02-07T08:51:46.227Z,4
2018-02-07T08:52:54.910Z,4
2018-02-07T08:54:03.859Z,4
2018-02-07T08:55:12.542Z,0
2018-02-07T08:56:22.282Z,0
2018-02-07T08:57:31.494Z,0
2018-02-07T08:58:40.442Z,0
2018-02-07T08:59:49.659Z,0
2018-02-07T09:00:58.601Z,0
2018-02-07T09:02:07.558Z,0
2018-02-07T09:03:16.800Z,0
2018-02-07T09:04:26.615Z,0
2018-02-07T09:05:35.295Z,4
2018-02-07T09:06:43.981Z,4
2018-02-07T09:07:52.928Z,4
2018-02-07T09:09:02.417Z,4
2018-02-07T09:10:11.366Z,4
2018-02-07T09:11:20.047Z,4
2018-02-07T09:12:28.995Z,4
2018-02-07T09:13:37.946Z,4
2018-02-07T09:14:46.892Z,4
2018-02-07T09:15:56.376Z,4
2018-02-07T09:17:05.596Z,4
2018-02-07T09:18:14.546Z,4
2018-02-07T09:19:23.495Z,4
2018-02-07T09:20:32.182Z,4
2018-02-07T09:21:41.392Z,4
2018-02-07T09:22:50.073Z,4
2018-02-07T09:23:59.287Z,4
2018-02-07T09:25:08.500Z,4
2018-02-07T09:26:17.182Z,4
2018-02-07T09:27:26.658Z,4
2018-02-07T09:28:35.606Z,4
2018-02-07T09:29:44.821Z,4
2018-02-07T09:30:54.031Z,4
2018-02-07T09:32:02.983Z,8
2018-02-07T09:33:11.699Z,4
2018-02-07T09:34:20.890Z,4
2018-02-07T09:35:30.103Z,4
2018-02-07T09:36:39.050Z,4
2018-02-07T09:37:48.264Z,4
2018-02-07T09:38:56.948Z,4
2018-02-07T09:40:05.637Z,4
2018-02-07T09:41:15.118Z,4
2018-02-07T09:42:24.097Z,4
2018-02-07T09:43:33.841Z,8
2018-02-07T09:44:42.523Z,8
2018-02-07T09:45:51.473Z,8
2018-02-07T09:47:00.684Z,8
2018-02-07T09:48:10.164Z,8
2018-02-07T09:49:18.845Z,4
2018-02-07T09:50:27.792Z,4
2018-02-07T09:51:36.739Z,4
2018-02-07T09:52:45.956Z,4
2018-02-07T09:53:54.906Z,8
2018-02-07T09:55:03.588Z,4
2018-02-07T09:56:13.327Z,8
2018-02-07T09:57:22.015Z,8
2018-02-07T09:58:30.694Z,4
2018-02-07T09:59:39.907Z,8
2018-02-07T10:00:49.396Z,4
2018-02-07T10:01:58.620Z,8
2018-02-07T10:03:07.560Z,8
2018-02-07T10:04:48.327Z,8
2018-02-07T10:05:57.850Z,8
2018-02-07T10:07:06.530Z,8
2018-02-07T10:08:15.210Z,8
2018-02-07T10:09:23.892Z,8
2018-02-07T10:10:32.584Z,8
2018-02-07T10:11:41.266Z,8
2018-02-07T10:12:49.948Z,8
2018-02-07T10:13:58.629Z,8
2018-02-07T10:15:07.312Z,8
2018-02-07T10:16:16.258Z,8
2018-02-07T10:17:25.212Z,12
2018-02-07T10:18:34.166Z,12
2018-02-07T10:19:43.385Z,12
2018-02-07T10:20:52.068Z,12
2018-02-07T10:22:01.285Z,12
2018-02-07T10:23:10.233Z,16
2018-02-07T10:24:19.436Z,20
2018-02-07T10:25:28.383Z,24
2018-02-07T10:26:37.066Z,28
2018-02-07T10:27:46.540Z,28
2018-02-07T10:28:55.494Z,28
2018-02-07T10:30:04.704Z,32
2018-02-07T10:31:13.653Z,28
2018-02-07T10:32:22.604Z,32
2018-02-07T10:33:31.286Z,32
2018-02-07T10:34:40.772Z,32
2018-02-07T10:35:50.517Z,36
2018-02-07T10:36:59.200Z,36
2018-02-07T10:38:07.885Z,36
2018-02-07T10:39:16.567Z,36
2018-02-07T10:40:25.253Z,40
2018-02-07T10:41:34.463Z,40
2018-02-07T10:42:43.150Z,40
2018-02-07T10:43:52.098Z,44
2018-02-07T10:45:01.045Z,48
2018-02-07T10:46:09.996Z,48
2018-02-07T10:47:18.680Z,52
2018-02-07T10:48:27.629Z,52
2018-02-07T10:49:36.843Z,52
2018-02-07T10:50:45.526Z,52
2018-02-07T10:51:54.746Z,52
2018-02-07T10:53:04.222Z,56
2018-02-07T10:54:13.167Z,56
2018-02-07T10:55:21.852Z,60
2018-02-07T10:56:30.798Z,60
2018-02-07T10:57:39.745Z,60
2018-02-07T10:58:48.962Z,64
2018-02-07T10:59:57.646Z,64
2018-02-07T11:01:06.600Z,64
2018-02-07T11:02:15.283Z,60
2018-02-07T11:03:24.495Z,64
2018-02-07T11:04:33.180Z,64
2018-02-07T11:05:42.132Z,64
2018-02-07T11:06:51.086Z,64
2018-02-07T11:08:00.297Z,64
2018-02-07T11:09:09.554Z,68
2018-02-07T11:10:18.503Z,64
2018-02-07T11:11:27.454Z,68
2018-02-07T11:12:36.667Z,68
2018-02-07T11:13:45.874Z,68
2018-02-07T11:14:54.561Z,68
2018-02-07T11:16:03.242Z,68
2018-02-07T11:17:12.196Z,72
2018-02-07T11:18:21.145Z,72
2018-02-07T11:19:30.360Z,68
2018-02-07T11:20:39.304Z,72
2018-02-07T11:21:48.536Z,72
2018-02-07T11:22:57.750Z,72
2018-02-07T11:24:06.704Z,72
2018-02-07T11:25:15.649Z,72
2018-02-07T11:26:24.336Z,76
2018-02-07T11:27:33.284Z,76
2018-02-07T11:28:42.498Z,76
2018-02-07T11:29:51.182Z,76
2018-02-07T11:30:59.864Z,76
2018-02-07T11:32:08.813Z,76
2018-02-07T11:33:18.285Z,80
2018-02-07T11:34:27.498Z,76
2018-02-07T11:35:36.979Z,80
2018-02-07T11:36:45.924Z,80
2018-02-07T11:37:55.140Z,76
2018-02-07T11:39:04.359Z,80
2018-02-07T11:40:13.574Z,76
2018-02-07T11:41:22.523Z,84
2018-02-07T11:42:31.470Z,84
2018-02-07T11:43:40.421Z,84
2018-02-07T11:44:49.105Z,80
2018-02-07T11:45:58.317Z,80
2018-02-07T11:47:07.001Z,80
2018-02-07T11:48:15.957Z,84
2018-02-07T11:49:25.168Z,84
2018-02-07T11:50:34.386Z,84
2018-02-07T11:51:43.333Z,84
2018-02-07T11:52:52.013Z,84
2018-02-07T11:54:00.961Z,84
2018-02-07T11:55:10.182Z,84
2018-02-07T11:56:19.446Z,88
2018-02-07T11:57:28.395Z,84
2018-02-07T11:58:37.342Z,88
2018-02-07T11:59:46.024Z,88
2018-02-07T12:00:55.503Z,88
2018-02-07T12:02:04.980Z,92
2018-02-07T12:03:13.930Z,92
2018-02-07T12:04:22.614Z,92
2018-02-07T12:05:31.566Z,92
2018-02-07T12:06:40.780Z,96
2018-02-07T12:07:50.258Z,96
2018-02-07T12:08:59.209Z,96
2018-02-07T12:10:08.431Z,100
2018-02-07T12:11:17.383Z,104
2018-02-07T12:12:26.598Z,100
2018-02-07T12:13:35.278Z,100
2018-02-07T12:14:44.493Z,96
2018-02-07T12:15:53.176Z,100
2018-02-07T12:17:02.390Z,92
2018-02-07T12:18:11.605Z,80
2018-02-07T12:19:20.300Z,80
2018-02-07T12:20:29.516Z,76
2018-02-07T12:21:38.199Z,76
2018-02-07T12:22:47.406Z,72
2018-02-07T12:23:56.353Z,72
2018-02-07T12:25:05.305Z,72
2018-02-07T12:26:14.255Z,76
2018-02-07T12:27:23.244Z,76
2018-02-07T12:28:32.195Z,76
2018-02-07T12:29:40.883Z,76
2018-02-07T12:30:49.566Z,72
2018-02-07T12:31:58.252Z,76
2018-02-07T12:33:07.205Z,72
2018-02-07T12:34:16.157Z,72
2018-02-07T12:35:25.117Z,76
2018-02-07T12:36:33.799Z,72
2018-02-07T12:37:43.274Z,72
2018-02-07T12:38:51.956Z,72
2018-02-07T12:40:00.905Z,68
2018-02-07T12:41:10.387Z,68
2018-02-07T12:42:19.340Z,68
2018-02-07T12:43:28.023Z,68
2018-02-07T12:44:36.707Z,64
2018-02-07T12:45:45.392Z,68
2018-02-07T12:46:54.365Z,64
2018-02-07T12:48:03.844Z,64
2018-02-07T12:49:12.790Z,64
2018-02-07T12:50:21.741Z,64
2018-02-07T12:51:30.958Z,60
2018-02-07T12:52:39.906Z,60
2018-02-07T12:53:48.852Z,60
2018-02-07T12:54:58.065Z,60
2018-02-07T12:56:07.278Z,60
2018-02-07T12:57:16.227Z,56
2018-02-07T12:58:24.914Z,56
2018-02-07T12:59:33.869Z,56
2018-02-07T13:00:43.135Z,56
2018-02-07T13:01:51.821Z,60
2018-02-07T13:03:00.502Z,56
2018-02-07T13:04:09.455Z,56
2018-02-07T13:05:18.662Z,52
2018-02-07T13:06:27.611Z,52
2018-02-07T13:07:36.563Z,52
2018-02-07T13:08:45.780Z,48
2018-02-07T13:09:54.730Z,48
2018-02-07T13:11:03.950Z,48
2018-02-07T13:12:13.165Z,48
2018-02-07T13:13:22.116Z,48
2018-02-07T13:14:31.329Z,48
2018-02-07T13:15:40.542Z,44
2018-02-07T13:16:49.492Z,44
2018-02-07T13:17:58.175Z,44
2018-02-07T13:19:07.124Z,40
2018-02-07T13:20:16.602Z,40
2018-02-07T13:21:25.549Z,44
2018-02-07T13:22:34.763Z,36
2018-02-07T13:23:43.975Z,36
2018-02-07T13:24:53.455Z,40
2018-02-07T13:26:03.205Z,36
2018-02-07T13:27:11.885Z,32
2018-02-07T13:28:20.569Z,36
2018-02-07T13:29:29.252Z,36
2018-02-07T13:30:38.470Z,36
2018-02-07T13:31:47.416Z,32
2018-02-07T13:32:57.155Z,32
2018-02-07T13:34:06.371Z,36
2018-02-07T13:35:15.324Z,32
2018-02-07T13:36:24.271Z,32
2018-02-07T13:37:33.484Z,32
2018-02-07T13:38:43.051Z,28
2018-02-07T13:39:52.213Z,28
2018-02-07T13:41:01.165Z,24
2018-02-07T13:42:10.116Z,28
2018-02-07T13:43:19.066Z,28
2018-02-07T13:44:28.280Z,24
2018-02-07T13:45:37.231Z,24
2018-02-07T13:46:46.445Z,24
2018-02-07T13:47:55.919Z,24
2018-02-07T13:49:04.605Z,24
2018-02-07T13:50:13.618Z,24
2018-02-07T13:51:22.573Z,24
2018-02-07T13:52:31.522Z,24
2018-02-07T13:53:40.736Z,24
2018-02-07T13:54:49.418Z,24
2018-02-07T13:55:58.099Z,20
2018-02-07T13:57:07.313Z,24
2018-02-07T13:58:15.995Z,24
2018-02-07T13:59:24.678Z,24
2018-02-07T14:00:33.626Z,20
2018-02-07T14:01:42.311Z,20
2018-02-07T14:02:51.267Z,24
2018-02-07T14:04:00.743Z,20
2018-02-07T14:05:09.971Z,20
2018-02-07T14:06:18.920Z,20
2018-02-07T14:07:27.867Z,16
2018-02-07T14:08:36.559Z,20
2018-02-07T14:09:45.508Z,16
2018-02-07T14:10:54.453Z,20
2018-02-07T14:12:03.672Z,8
2018-02-07T14:13:12.621Z,8
2018-02-07T14:14:21.838Z,4
2018-02-07T14:15:30.523Z,8
2018-02-07T14:16:39.220Z,8
2018-02-07T14:17:48.170Z,4
2018-02-07T14:18:57.124Z,16
2018-02-07T14:20:06.615Z,16
2018-02-07T14:21:15.564Z,16
2018-02-07T14:22:24.517Z,12
2018-02-07T14:23:33.465Z,12
2018-02-07T14:24:42.682Z,12
2018-02-07T14:25:51.365Z,12
2018-02-07T14:27:00.849Z,12
2018-02-07T14:28:09.737Z,12
2018-02-07T14:29:19.216Z,12
2018-02-07T14:30:28.596Z,12
2018-02-07T14:31:37.446Z,8
2018-02-07T14:32:46.656Z,12
2018-02-07T14:33:55.611Z,8
2018-02-07T14:35:04.940Z,8
2018-02-07T14:36:13.619Z,8
2018-02-07T14:37:22.899Z,8
2018-02-07T14:38:31.860Z,8
2018-02-07T14:39:41.076Z,8
2018-02-07T14:40:49.755Z,8
2018-02-07T14:41:58.968Z,4
2018-02-07T14:43:07.696Z,8
2018-02-07T14:44:16.871Z,4
2018-02-07T14:45:25.817Z,8
2018-02-07T14:46:34.767Z,4
2018-02-07T14:47:43.978Z,8
2018-02-07T14:48:52.666Z,4
2018-02-07T14:50:01.612Z,4
2018-02-07T14:51:10.301Z,8
2018-02-07T14:52:18.981Z,4
2018-02-07T14:53:27.934Z,4
2018-02-07T14:54:36.615Z,4
2018-02-07T14:55:45.566Z,4
2018-02-07T14:56:54.512Z,4
2018-02-07T14:58:03.192Z,4
2018-02-07T14:59:11.873Z,4
2018-02-07T15:00:20.819Z,4
2018-02-07T15:01:29.499Z,4
2018-02-07T15:02:38.181Z,4
2018-02-07T15:03:47.401Z,4
2018-02-07T15:04:56.082Z,0
2018-02-07T15:06:05.299Z,4
2018-02-07T15:07:13.985Z,4
2018-02-07T15:08:22.936Z,4
2018-02-07T15:09:31.883Z,4
2018-02-07T15:10:41.358Z,0
2018-02-07T15:11:50.046Z,0
2018-02-07T15:12:59.804Z,4
2018-02-07T15:14:08.488Z,4
2018-02-07T15:15:17.726Z,4
2018-02-07T15:16:26.404Z,4
2018-02-07T15:17:35.085Z,4
2018-02-07T15:18:44.031Z,4
2018-02-07T15:19:52.983Z,4
2018-02-07T15:21:01.928Z,0
2018-02-07T15:22:11.138Z,0
2018-02-07T15:23:20.090Z,0
2018-02-07T15:24:29.355Z,0
2018-02-07T15:25:38.037Z,0
2018-02-07T15:26:46.983Z,0
2018-02-07T15:27:56.459Z,4
2018-02-07T15:29:05.407Z,4
2018-02-07T15:30:14.357Z,4
2018-02-07T15:31:23.574Z,4
2018-02-07T15:32:32.258Z,4
2018-02-07T15:33:41.477Z,4
2018-02-07T15:34:50.693Z,4
2018-02-07T15:35:59.373Z,4
2018-02-07T15:37:08.323Z,4
2018-02-07T15:38:17.015Z,0
2018-02-07T15:39:25.953Z,0
2018-02-07T15:40:34.900Z,0
2018-02-07T15:41:43.845Z,0
2018-02-07T15:42:52.793Z,0
2018-02-07T15:44:01.475Z,0
2018-02-07T15:45:10.959Z,0
2018-02-07T15:46:19.643Z,0
2018-02-07T15:47:28.661Z,0
2018-02-07T15:48:37.607Z,0
2018-02-07T15:49:46.822Z,0
2018-02-07T15:50:56.035Z,0
2018-02-07T15:52:05.252Z,0
2018-02-07T15:53:14.202Z,4
2018-02-07T15:54:23.146Z,4
2018-02-07T15:55:32.096Z,4
2018-02-07T15:56:41.040Z,4
2018-02-07T15:57:49.722Z,0
2018-02-07T15:58:58.940Z,0
2018-02-07T16:00:07.622Z,0
2018-02-07T16:01:16.578Z,0
2018-02-07T16:02:25.592Z,0
2018-02-07T16:03:34.274Z,0
2018-02-07T16:04:42.958Z,0
2018-02-07T16:05:52.176Z,0
2018-02-07T16:07:01.133Z,0
2018-02-07T16:08:09.819Z,0
2018-02-07T16:09:18.502Z,0
2018-02-07T16:10:27.453Z,0
2018-02-07T16:11:36.932Z,0
2018-02-07T16:12:45.887Z,0
2018-02-07T16:13:54.570Z,0
2018-02-07T16:15:03.519Z,0
2018-02-07T16:16:12.730Z,0
2018-02-07T16:17:21.940Z,0
2018-02-07T16:18:30.629Z,0
2018-02-07T16:19:39.308Z,0
2018-02-07T16:20:48.257Z,0
2018-02-07T16:21:56.942Z,0
2018-02-07T16:23:05.624Z,0
2018-02-07T16:24:14.837Z,0
2018-02-07T16:25:23.515Z,0
2018-02-07T16:26:32.202Z,0
2018-02-07T16:27:41.420Z,0
2018-02-07T16:28:50.370Z,0
2018-02-07T16:29:59.582Z,0
2018-02-07T16:31:08.796Z,0
2018-02-07T16:32:17.745Z,0
2018-02-07T16:33:26.693Z,0
2018-02-07T16:34:35.372Z,0
2018-02-07T16:35:44.587Z,0
2018-02-07T16:36:53.535Z,0
2018-02-07T16:38:02.483Z,0
2018-02-07T16:39:11.166Z,0
2018-02-07T16:40:20.643Z,0
2018-02-07T16:41:29.590Z,0
2018-02-07T16:42:38.798Z,0
2018-02-07T16:43:47.749Z,0
2018-02-07T16:44:56.692Z,0
2018-02-07T16:46:05.908Z,0
2018-02-07T16:47:15.389Z,0
2018-02-07T16:48:24.872Z,0
2018-02-07T16:49:33.826Z,0
2018-02-07T16:50:42.510Z,0
2018-02-07T16:51:51.721Z,0